sensor_id;sensor_type;location;lat;lon;timestamp;P1;durP1;ratioP1;P2;durP2;ratioP2
8944;SDS011;4507;40.232;29.132;2023-06-04T00:00:37;16.23;;;14.57;;
8944;SDS011;4507;40.232;29.132;2023-06-04T00:03:06;19.83;;;15.17;;
8944;SDS011;4507;40.232;29.132;2023-06-04T00:05:35;15.80;;;14.23;;
8944;SDS011;4507;40.232;29.132;2023-06-04T00:08:04;19.67;;;15.37;;
8944;SDS011;4507;40.232;29.132;2023-06-04T00:10:33;18.20;;;15.43;;
8944;SDS011;4507;40.232;29.132;2023-06-04T00:13:04;17.50;;;15.70;;
8944;SDS011;4507;40.232;29.132;2023-06-04T00:15:33;19.47;;;15.97;;
8944;SDS011;4507;40.232;29.132;2023-06-04T00:18:02;17.93;;;16.13;;
8944;SDS011;4507;40.232;29.132;2023-06-04T00:20:31;19.33;;;17.33;;
8944;SDS011;4507;40.232;29.132;2023-06-04T00:23:00;18.10;;;16.20;;
8944;SDS011;4507;40.232;29.132;2023-06-04T00:25:29;19.47;;;17.20;;
8944;SDS011;4507;40.232;29.132;2023-06-04T00:27:58;20.37;;;17.33;;
8944;SDS011;4507;40.232;29.132;2023-06-04T00:30:28;20.80;;;18.60;;
8944;SDS011;4507;40.232;29.132;2023-06-04T00:32:58;22.67;;;20.20;;
8944;SDS011;4507;40.232;29.132;2023-06-04T00:35:27;23.67;;;19.70;;
8944;SDS011;4507;40.232;29.132;2023-06-04T00:37:56;21.37;;;18.80;;
8944;SDS011;4507;40.232;29.132;2023-06-04T00:40:25;20.77;;;18.60;;
8944;SDS011;4507;40.232;29.132;2023-06-04T00:42:54;21.67;;;18.50;;
8944;SDS011;4507;40.232;29.132;2023-06-04T00:45:23;21.07;;;18.10;;
8944;SDS011;4507;40.232;29.132;2023-06-04T00:47:54;21.27;;;18.33;;
8944;SDS011;4507;40.232;29.132;2023-06-04T00:50:23;21.93;;;18.10;;
8944;SDS011;4507;40.232;29.132;2023-06-04T00:52:53;22.03;;;18.67;;
8944;SDS011;4507;40.232;29.132;2023-06-04T00:55:43;21.90;;;18.00;;
8944;SDS011;4507;40.232;29.132;2023-06-04T00:58:12;20.93;;;18.53;;
8944;SDS011;4507;40.232;29.132;2023-06-04T01:00:42;23.57;;;19.13;;
8944;SDS011;4507;40.232;29.132;2023-06-04T01:03:14;25.57;;;20.00;;
8944;SDS011;4507;40.232;29.132;2023-06-04T01:06:08;23.07;;;19.43;;
8944;SDS011;4507;40.232;29.132;2023-06-04T01:08:49;21.07;;;18.80;;
8944;SDS011;4507;40.232;29.132;2023-06-04T01:11:30;23.47;;;19.83;;
8944;SDS011;4507;40.232;29.132;2023-06-04T01:14:01;23.40;;;20.40;;
8944;SDS011;4507;40.232;29.132;2023-06-04T01:16:34;26.10;;;19.67;;
8944;SDS011;4507;40.232;29.132;2023-06-04T01:19:16;23.00;;;20.60;;
8944;SDS011;4507;40.232;29.132;2023-06-04T01:22:02;26.70;;;21.27;;
8944;SDS011;4507;40.232;29.132;2023-06-04T01:24:35;29.43;;;21.10;;
8944;SDS011;4507;40.232;29.132;2023-06-04T01:27:05;26.00;;;22.80;;
8944;SDS011;4507;40.232;29.132;2023-06-04T01:29:35;25.90;;;20.90;;
8944;SDS011;4507;40.232;29.132;2023-06-04T01:32:05;26.30;;;21.27;;
8944;SDS011;4507;40.232;29.132;2023-06-04T01:34:44;25.07;;;22.37;;
8944;SDS011;4507;40.232;29.132;2023-06-04T01:37:14;26.77;;;21.70;;
8944;SDS011;4507;40.232;29.132;2023-06-04T01:40:03;23.17;;;20.63;;
8944;SDS011;4507;40.232;29.132;2023-06-04T01:42:33;25.13;;;21.60;;
8944;SDS011;4507;40.232;29.132;2023-06-04T01:45:03;22.93;;;19.53;;
8944;SDS011;4507;40.232;29.132;2023-06-04T01:47:32;21.73;;;19.53;;
8944;SDS011;4507;40.232;29.132;2023-06-04T01:50:04;24.27;;;17.57;;
8944;SDS011;4507;40.232;29.132;2023-06-04T01:52:36;19.70;;;17.60;;
8944;SDS011;4507;40.232;29.132;2023-06-04T01:55:05;19.27;;;17.23;;
8944;SDS011;4507;40.232;29.132;2023-06-04T01:57:35;18.87;;;17.07;;
8944;SDS011;4507;40.232;29.132;2023-06-04T02:00:05;18.73;;;16.83;;
8944;SDS011;4507;40.232;29.132;2023-06-04T02:02:40;20.53;;;18.33;;
8944;SDS011;4507;40.232;29.132;2023-06-04T02:05:12;21.23;;;19.10;;
8944;SDS011;4507;40.232;29.132;2023-06-04T02:07:42;21.57;;;19.50;;
8944;SDS011;4507;40.232;29.132;2023-06-04T02:10:13;21.90;;;19.70;;
8944;SDS011;4507;40.232;29.132;2023-06-04T02:12:52;19.73;;;17.93;;
8944;SDS011;4507;40.232;29.132;2023-06-04T02:15:23;19.17;;;17.17;;
8944;SDS011;4507;40.232;29.132;2023-06-04T02:17:54;16.50;;;14.57;;
8944;SDS011;4507;40.232;29.132;2023-06-04T02:20:45;12.80;;;11.50;;
8944;SDS011;4507;40.232;29.132;2023-06-04T02:23:14;13.10;;;11.90;;
8944;SDS011;4507;40.232;29.132;2023-06-04T02:25:44;13.20;;;11.93;;
8944;SDS011;4507;40.232;29.132;2023-06-04T02:28:14;12.83;;;11.23;;
8944;SDS011;4507;40.232;29.132;2023-06-04T02:30:49;12.50;;;11.30;;
8944;SDS011;4507;40.232;29.132;2023-06-04T02:33:18;11.93;;;10.73;;
8944;SDS011;4507;40.232;29.132;2023-06-04T02:35:49;12.77;;;10.73;;
8944;SDS011;4507;40.232;29.132;2023-06-04T02:38:18;11.83;;;10.47;;
8944;SDS011;4507;40.232;29.132;2023-06-04T02:40:47;12.63;;;11.33;;
8944;SDS011;4507;40.232;29.132;2023-06-04T02:43:16;12.03;;;10.83;;
8944;SDS011;4507;40.232;29.132;2023-06-04T02:45:45;27.00;;;21.87;;
8944;SDS011;4507;40.232;29.132;2023-06-04T02:48:14;20.57;;;17.50;;
8944;SDS011;4507;40.232;29.132;2023-06-04T02:50:43;23.93;;;18.37;;
8944;SDS011;4507;40.232;29.132;2023-06-04T02:53:13;23.87;;;16.77;;
8944;SDS011;4507;40.232;29.132;2023-06-04T02:55:42;19.00;;;15.10;;
8944;SDS011;4507;40.232;29.132;2023-06-04T02:58:11;13.90;;;12.57;;
8944;SDS011;4507;40.232;29.132;2023-06-04T03:00:41;15.43;;;12.37;;
8944;SDS011;4507;40.232;29.132;2023-06-04T03:03:09;15.63;;;12.50;;
8944;SDS011;4507;40.232;29.132;2023-06-04T03:05:39;14.17;;;12.23;;
8944;SDS011;4507;40.232;29.132;2023-06-04T03:08:10;14.00;;;12.50;;
8944;SDS011;4507;40.232;29.132;2023-06-04T03:10:41;14.17;;;12.43;;
8944;SDS011;4507;40.232;29.132;2023-06-04T03:13:10;14.90;;;12.50;;
8944;SDS011;4507;40.232;29.132;2023-06-04T03:15:39;16.63;;;13.03;;
8944;SDS011;4507;40.232;29.132;2023-06-04T03:18:08;13.70;;;12.17;;
8944;SDS011;4507;40.232;29.132;2023-06-04T03:20:37;12.97;;;11.57;;
8944;SDS011;4507;40.232;29.132;2023-06-04T03:23:06;13.40;;;11.50;;
8944;SDS011;4507;40.232;29.132;2023-06-04T03:25:36;14.43;;;11.33;;
8944;SDS011;4507;40.232;29.132;2023-06-04T03:28:05;12.50;;;11.37;;
8944;SDS011;4507;40.232;29.132;2023-06-04T03:30:34;13.80;;;12.50;;
8944;SDS011;4507;40.232;29.132;2023-06-04T03:33:05;13.40;;;12.10;;
8944;SDS011;4507;40.232;29.132;2023-06-04T03:35:35;16.30;;;12.60;;
8944;SDS011;4507;40.232;29.132;2023-06-04T03:38:23;16.50;;;13.43;;
8944;SDS011;4507;40.232;29.132;2023-06-04T03:40:53;15.57;;;13.70;;
8944;SDS011;4507;40.232;29.132;2023-06-04T03:43:23;15.67;;;13.70;;
8944;SDS011;4507;40.232;29.132;2023-06-04T03:45:56;15.33;;;13.73;;
8944;SDS011;4507;40.232;29.132;2023-06-04T03:48:26;15.23;;;13.73;;
8944;SDS011;4507;40.232;29.132;2023-06-04T03:50:55;17.83;;;15.90;;
8944;SDS011;4507;40.232;29.132;2023-06-04T03:53:24;17.70;;;15.50;;
8944;SDS011;4507;40.232;29.132;2023-06-04T03:55:54;18.03;;;15.50;;
8944;SDS011;4507;40.232;29.132;2023-06-04T03:58:23;17.30;;;15.60;;
8944;SDS011;4507;40.232;29.132;2023-06-04T04:00:53;24.40;;;17.23;;
8944;SDS011;4507;40.232;29.132;2023-06-04T04:03:23;18.63;;;16.63;;
8944;SDS011;4507;40.232;29.132;2023-06-04T04:05:59;20.43;;;18.23;;
8944;SDS011;4507;40.232;29.132;2023-06-04T04:08:28;23.87;;;19.87;;
8944;SDS011;4507;40.232;29.132;2023-06-04T04:10:59;26.13;;;23.33;;
8944;SDS011;4507;40.232;29.132;2023-06-04T04:13:29;23.10;;;20.70;;
8944;SDS011;4507;40.232;29.132;2023-06-04T04:15:58;23.77;;;21.13;;
8944;SDS011;4507;40.232;29.132;2023-06-04T04:18:28;23.77;;;21.30;;
8944;SDS011;4507;40.232;29.132;2023-06-04T04:21:00;25.03;;;22.33;;
8944;SDS011;4507;40.232;29.132;2023-06-04T04:23:30;25.60;;;22.37;;
8944;SDS011;4507;40.232;29.132;2023-06-04T04:26:01;24.93;;;22.10;;
8944;SDS011;4507;40.232;29.132;2023-06-04T04:28:30;32.53;;;25.47;;
8944;SDS011;4507;40.232;29.132;2023-06-04T04:31:00;28.23;;;23.57;;
8944;SDS011;4507;40.232;29.132;2023-06-04T04:33:33;28.13;;;22.87;;
8944;SDS011;4507;40.232;29.132;2023-06-04T04:36:11;52.00;;;46.70;;
8944;SDS011;4507;40.232;29.132;2023-06-04T04:38:46;30.90;;;27.70;;
8944;SDS011;4507;40.232;29.132;2023-06-04T04:41:29;27.57;;;24.73;;
8944;SDS011;4507;40.232;29.132;2023-06-04T04:44:02;26.00;;;23.30;;
8944;SDS011;4507;40.232;29.132;2023-06-04T04:46:32;24.80;;;22.17;;
8944;SDS011;4507;40.232;29.132;2023-06-04T04:49:01;22.90;;;20.33;;
8944;SDS011;4507;40.232;29.132;2023-06-04T04:51:31;21.90;;;17.83;;
8944;SDS011;4507;40.232;29.132;2023-06-04T04:54:01;22.87;;;17.40;;
8944;SDS011;4507;40.232;29.132;2023-06-04T04:56:34;19.23;;;17.33;;
8944;SDS011;4507;40.232;29.132;2023-06-04T04:59:04;23.57;;;16.70;;
8944;SDS011;4507;40.232;29.132;2023-06-04T05:01:33;19.50;;;17.53;;
8944;SDS011;4507;40.232;29.132;2023-06-04T05:04:03;22.30;;;18.87;;
8944;SDS011;4507;40.232;29.132;2023-06-04T05:06:37;21.50;;;19.10;;
8944;SDS011;4507;40.232;29.132;2023-06-04T05:09:06;22.30;;;19.63;;
8944;SDS011;4507;40.232;29.132;2023-06-04T05:11:37;23.00;;;19.80;;
8944;SDS011;4507;40.232;29.132;2023-06-04T05:14:06;24.33;;;21.83;;
8944;SDS011;4507;40.232;29.132;2023-06-04T05:16:36;25.70;;;23.00;;
8944;SDS011;4507;40.232;29.132;2023-06-04T05:19:09;28.37;;;25.40;;
8944;SDS011;4507;40.232;29.132;2023-06-04T05:21:40;27.83;;;25.10;;
8944;SDS011;4507;40.232;29.132;2023-06-04T05:24:11;31.10;;;26.63;;
8944;SDS011;4507;40.232;29.132;2023-06-04T05:26:41;27.90;;;25.10;;
8944;SDS011;4507;40.232;29.132;2023-06-04T05:29:17;29.93;;;26.77;;
8944;SDS011;4507;40.232;29.132;2023-06-04T05:31:47;31.37;;;28.07;;
8944;SDS011;4507;40.232;29.132;2023-06-04T05:34:19;30.13;;;27.13;;
8944;SDS011;4507;40.232;29.132;2023-06-04T05:37:06;30.83;;;27.70;;
8944;SDS011;4507;40.232;29.132;2023-06-04T05:39:39;31.73;;;28.57;;
8944;SDS011;4507;40.232;29.132;2023-06-04T05:42:13;34.67;;;30.63;;
8944;SDS011;4507;40.232;29.132;2023-06-04T05:44:43;35.47;;;31.37;;
8944;SDS011;4507;40.232;29.132;2023-06-04T05:47:15;35.67;;;31.57;;
8944;SDS011;4507;40.232;29.132;2023-06-04T05:49:45;35.60;;;31.90;;
8944;SDS011;4507;40.232;29.132;2023-06-04T05:52:15;33.63;;;30.23;;
8944;SDS011;4507;40.232;29.132;2023-06-04T05:54:45;31.73;;;28.57;;
8944;SDS011;4507;40.232;29.132;2023-06-04T05:57:16;31.30;;;28.10;;
8944;SDS011;4507;40.232;29.132;2023-06-04T05:59:45;33.53;;;30.03;;
8944;SDS011;4507;40.232;29.132;2023-06-04T06:02:16;31.23;;;27.93;;
8944;SDS011;4507;40.232;29.132;2023-06-04T06:04:45;30.80;;;27.50;;
8944;SDS011;4507;40.232;29.132;2023-06-04T06:07:15;31.67;;;28.27;;
8944;SDS011;4507;40.232;29.132;2023-06-04T06:09:44;29.53;;;26.63;;
8944;SDS011;4507;40.232;29.132;2023-06-04T06:12:13;30.30;;;27.20;;
8944;SDS011;4507;40.232;29.132;2023-06-04T06:14:44;29.50;;;26.53;;
8944;SDS011;4507;40.232;29.132;2023-06-04T06:17:13;26.30;;;23.57;;
8944;SDS011;4507;40.232;29.132;2023-06-04T06:19:42;24.93;;;22.43;;
8944;SDS011;4507;40.232;29.132;2023-06-04T06:22:11;19.17;;;17.13;;
8944;SDS011;4507;40.232;29.132;2023-06-04T06:24:41;15.73;;;13.93;;
8944;SDS011;4507;40.232;29.132;2023-06-04T06:27:10;17.27;;;14.07;;
8944;SDS011;4507;40.232;29.132;2023-06-04T06:29:41;15.60;;;14.07;;
8944;SDS011;4507;40.232;29.132;2023-06-04T06:32:10;13.70;;;12.23;;
8944;SDS011;4507;40.232;29.132;2023-06-04T06:34:39;14.57;;;13.23;;
8944;SDS011;4507;40.232;29.132;2023-06-04T06:37:08;15.47;;;13.97;;
8944;SDS011;4507;40.232;29.132;2023-06-04T06:39:37;18.07;;;16.33;;
8944;SDS011;4507;40.232;29.132;2023-06-04T06:42:06;17.50;;;15.73;;
8944;SDS011;4507;40.232;29.132;2023-06-04T06:44:41;18.90;;;16.60;;
8944;SDS011;4507;40.232;29.132;2023-06-04T06:47:10;17.20;;;15.53;;
8944;SDS011;4507;40.232;29.132;2023-06-04T06:49:40;19.33;;;16.50;;
8944;SDS011;4507;40.232;29.132;2023-06-04T06:52:09;29.53;;;26.63;;
8944;SDS011;4507;40.232;29.132;2023-06-04T06:54:38;21.73;;;19.57;;
8944;SDS011;4507;40.232;29.132;2023-06-04T06:57:07;23.17;;;20.97;;
8944;SDS011;4507;40.232;29.132;2023-06-04T06:59:36;15.90;;;14.37;;
8944;SDS011;4507;40.232;29.132;2023-06-04T07:02:06;11.47;;;10.30;;
8944;SDS011;4507;40.232;29.132;2023-06-04T07:04:35;15.87;;;10.80;;
8944;SDS011;4507;40.232;29.132;2023-06-04T07:07:04;10.13;;;9.23;;
8944;SDS011;4507;40.232;29.132;2023-06-04T07:09:34;10.47;;;9.23;;
8944;SDS011;4507;40.232;29.132;2023-06-04T07:12:03;10.77;;;9.27;;
8944;SDS011;4507;40.232;29.132;2023-06-04T07:14:32;10.77;;;9.70;;
8944;SDS011;4507;40.232;29.132;2023-06-04T07:17:01;10.20;;;9.00;;
8944;SDS011;4507;40.232;29.132;2023-06-04T07:19:32;12.63;;;9.03;;
8944;SDS011;4507;40.232;29.132;2023-06-04T07:22:02;10.40;;;9.30;;
8944;SDS011;4507;40.232;29.132;2023-06-04T07:24:31;13.50;;;10.87;;
8944;SDS011;4507;40.232;29.132;2023-06-04T07:27:00;21.60;;;17.67;;
8944;SDS011;4507;40.232;29.132;2023-06-04T07:29:30;27.13;;;24.37;;
8944;SDS011;4507;40.232;29.132;2023-06-04T07:31:59;22.50;;;15.00;;
8944;SDS011;4507;40.232;29.132;2023-06-04T07:34:28;15.60;;;13.93;;
8944;SDS011;4507;40.232;29.132;2023-06-04T07:36:58;15.87;;;14.20;;
8944;SDS011;4507;40.232;29.132;2023-06-04T07:39:27;16.07;;;14.47;;
8944;SDS011;4507;40.232;29.132;2023-06-04T07:41:56;16.93;;;12.93;;
8944;SDS011;4507;40.232;29.132;2023-06-04T07:44:25;15.97;;;14.20;;
8944;SDS011;4507;40.232;29.132;2023-06-04T07:46:54;18.40;;;16.47;;
8944;SDS011;4507;40.232;29.132;2023-06-04T07:49:23;18.37;;;16.63;;
8944;SDS011;4507;40.232;29.132;2023-06-04T07:51:53;17.53;;;15.67;;
8944;SDS011;4507;40.232;29.132;2023-06-04T07:54:23;18.13;;;15.83;;
8944;SDS011;4507;40.232;29.132;2023-06-04T07:56:53;16.13;;;14.53;;
8944;SDS011;4507;40.232;29.132;2023-06-04T07:59:23;15.10;;;13.53;;
8944;SDS011;4507;40.232;29.132;2023-06-04T08:01:52;14.70;;;12.93;;
8944;SDS011;4507;40.232;29.132;2023-06-04T08:04:21;11.57;;;10.57;;
8944;SDS011;4507;40.232;29.132;2023-06-04T08:06:50;13.60;;;12.23;;
8944;SDS011;4507;40.232;29.132;2023-06-04T08:09:20;12.93;;;11.73;;
8944;SDS011;4507;40.232;29.132;2023-06-04T08:11:51;15.37;;;13.57;;
8944;SDS011;4507;40.232;29.132;2023-06-04T08:14:21;17.77;;;15.00;;
8944;SDS011;4507;40.232;29.132;2023-06-04T08:16:55;15.50;;;14.03;;
8944;SDS011;4507;40.232;29.132;2023-06-04T08:19:24;16.77;;;15.07;;
8944;SDS011;4507;40.232;29.132;2023-06-04T08:21:52;18.37;;;16.67;;
8944;SDS011;4507;40.232;29.132;2023-06-04T08:24:23;18.93;;;17.03;;
8944;SDS011;4507;40.232;29.132;2023-06-04T08:26:54;18.00;;;16.20;;
8944;SDS011;4507;40.232;29.132;2023-06-04T08:29:23;19.63;;;17.70;;
8944;SDS011;4507;40.232;29.132;2023-06-04T08:31:52;20.90;;;18.90;;
8944;SDS011;4507;40.232;29.132;2023-06-04T08:34:21;19.43;;;17.47;;
8944;SDS011;4507;40.232;29.132;2023-06-04T08:36:50;21.60;;;18.47;;
8944;SDS011;4507;40.232;29.132;2023-06-04T08:39:19;20.10;;;18.00;;
8944;SDS011;4507;40.232;29.132;2023-06-04T08:41:51;19.27;;;17.47;;
8944;SDS011;4507;40.232;29.132;2023-06-04T08:44:24;18.23;;;16.43;;
8944;SDS011;4507;40.232;29.132;2023-06-04T08:46:53;19.03;;;17.13;;
8944;SDS011;4507;40.232;29.132;2023-06-04T08:49:25;17.90;;;16.23;;
8944;SDS011;4507;40.232;29.132;2023-06-04T08:51:55;16.17;;;14.60;;
8944;SDS011;4507;40.232;29.132;2023-06-04T08:54:24;16.67;;;14.97;;
8944;SDS011;4507;40.232;29.132;2023-06-04T08:56:55;17.47;;;15.70;;
8944;SDS011;4507;40.232;29.132;2023-06-04T08:59:27;24.97;;;16.67;;
8944;SDS011;4507;40.232;29.132;2023-06-04T09:01:56;23.60;;;17.23;;
8944;SDS011;4507;40.232;29.132;2023-06-04T09:04:26;21.33;;;17.27;;
8944;SDS011;4507;40.232;29.132;2023-06-04T09:06:58;14.33;;;12.90;;
8944;SDS011;4507;40.232;29.132;2023-06-04T09:09:30;16.77;;;15.10;;
8944;SDS011;4507;40.232;29.132;2023-06-04T09:12:06;15.13;;;13.37;;
8944;SDS011;4507;40.232;29.132;2023-06-04T09:14:40;15.50;;;14.00;;
8944;SDS011;4507;40.232;29.132;2023-06-04T09:17:09;13.50;;;12.00;;
8944;SDS011;4507;40.232;29.132;2023-06-04T09:19:38;14.17;;;12.80;;
8944;SDS011;4507;40.232;29.132;2023-06-04T09:22:06;13.80;;;12.37;;
8944;SDS011;4507;40.232;29.132;2023-06-04T09:24:54;14.97;;;13.47;;
8944;SDS011;4507;40.232;29.132;2023-06-04T09:27:23;15.10;;;13.60;;
8944;SDS011;4507;40.232;29.132;2023-06-04T09:29:54;15.43;;;13.83;;
8944;SDS011;4507;40.232;29.132;2023-06-04T09:32:24;14.77;;;13.37;;
8944;SDS011;4507;40.232;29.132;2023-06-04T09:34:55;15.47;;;12.87;;
8944;SDS011;4507;40.232;29.132;2023-06-04T09:37:35;14.50;;;12.63;;
8944;SDS011;4507;40.232;29.132;2023-06-04T09:40:05;15.37;;;13.90;;
8944;SDS011;4507;40.232;29.132;2023-06-04T09:42:41;15.97;;;14.37;;
8944;SDS011;4507;40.232;29.132;2023-06-04T09:45:12;17.77;;;16.10;;
8944;SDS011;4507;40.232;29.132;2023-06-04T09:47:54;18.07;;;16.47;;
8944;SDS011;4507;40.232;29.132;2023-06-04T09:50:26;17.83;;;15.93;;
8944;SDS011;4507;40.232;29.132;2023-06-04T09:53:00;17.10;;;15.60;;
8944;SDS011;4507;40.232;29.132;2023-06-04T09:55:55;17.73;;;15.93;;
8944;SDS011;4507;40.232;29.132;2023-06-04T09:58:25;16.30;;;14.70;;
8944;SDS011;4507;40.232;29.132;2023-06-04T10:00:57;15.97;;;14.47;;
8944;SDS011;4507;40.232;29.132;2023-06-04T10:03:30;22.87;;;16.10;;
8944;SDS011;4507;40.232;29.132;2023-06-04T10:06:01;18.13;;;16.37;;
8944;SDS011;4507;40.232;29.132;2023-06-04T10:08:34;18.27;;;16.47;;
8944;SDS011;4507;40.232;29.132;2023-06-04T10:11:03;18.80;;;17.07;;
8944;SDS011;4507;40.232;29.132;2023-06-04T10:13:35;18.77;;;16.97;;
8944;SDS011;4507;40.232;29.132;2023-06-04T10:16:10;21.13;;;18.93;;
8944;SDS011;4507;40.232;29.132;2023-06-04T10:18:55;23.50;;;21.20;;
8944;SDS011;4507;40.232;29.132;2023-06-04T10:21:25;29.47;;;26.50;;
8944;SDS011;4507;40.232;29.132;2023-06-04T10:23:54;30.07;;;27.27;;
8944;SDS011;4507;40.232;29.132;2023-06-04T10:26:23;29.10;;;26.17;;
8944;SDS011;4507;40.232;29.132;2023-06-04T10:28:53;22.33;;;20.07;;
8944;SDS011;4507;40.232;29.132;2023-06-04T10:31:27;22.43;;;20.10;;
8944;SDS011;4507;40.232;29.132;2023-06-04T10:33:56;20.43;;;18.33;;
8944;SDS011;4507;40.232;29.132;2023-06-04T10:36:26;21.53;;;19.53;;
8944;SDS011;4507;40.232;29.132;2023-06-04T10:38:55;28.57;;;23.33;;
8944;SDS011;4507;40.232;29.132;2023-06-04T10:41:24;21.83;;;19.60;;
8944;SDS011;4507;40.232;29.132;2023-06-04T10:44:00;20.83;;;18.77;;
8944;SDS011;4507;40.232;29.132;2023-06-04T10:46:38;21.73;;;19.73;;
8944;SDS011;4507;40.232;29.132;2023-06-04T10:49:09;23.13;;;20.70;;
8944;SDS011;4507;40.232;29.132;2023-06-04T10:51:39;20.80;;;18.77;;
8944;SDS011;4507;40.232;29.132;2023-06-04T10:54:10;19.17;;;17.37;;
8944;SDS011;4507;40.232;29.132;2023-06-04T10:56:51;20.43;;;18.43;;
8944;SDS011;4507;40.232;29.132;2023-06-04T10:59:21;19.73;;;17.90;;
8944;SDS011;4507;40.232;29.132;2023-06-04T11:02:03;18.90;;;17.20;;
8944;SDS011;4507;40.232;29.132;2023-06-04T11:04:35;20.10;;;16.77;;
8944;SDS011;4507;40.232;29.132;2023-06-04T11:07:05;17.53;;;15.83;;
8944;SDS011;4507;40.232;29.132;2023-06-04T11:09:36;19.33;;;17.33;;
8944;SDS011;4507;40.232;29.132;2023-06-04T11:12:24;16.67;;;15.10;;
8944;SDS011;4507;40.232;29.132;2023-06-04T11:14:54;16.50;;;14.83;;
8944;SDS011;4507;40.232;29.132;2023-06-04T11:17:53;16.17;;;14.67;;
8944;SDS011;4507;40.232;29.132;2023-06-04T11:20:25;16.43;;;14.73;;
8944;SDS011;4507;40.232;29.132;2023-06-04T11:22:54;17.20;;;15.43;;
8944;SDS011;4507;40.232;29.132;2023-06-04T11:25:43;20.17;;;15.73;;
8944;SDS011;4507;40.232;29.132;2023-06-04T11:28:16;16.67;;;13.90;;
8944;SDS011;4507;40.232;29.132;2023-06-04T11:30:55;12.90;;;11.53;;
8944;SDS011;4507;40.232;29.132;2023-06-04T11:33:26;15.00;;;10.97;;
8944;SDS011;4507;40.232;29.132;2023-06-04T11:35:55;12.27;;;11.07;;
8944;SDS011;4507;40.232;29.132;2023-06-04T11:38:24;13.83;;;11.80;;
8944;SDS011;4507;40.232;29.132;2023-06-04T11:40:59;12.03;;;10.87;;
8944;SDS011;4507;40.232;29.132;2023-06-04T11:43:32;12.10;;;10.73;;
8944;SDS011;4507;40.232;29.132;2023-06-04T11:46:06;12.10;;;9.70;;
8944;SDS011;4507;40.232;29.132;2023-06-04T11:48:39;12.23;;;10.27;;
8944;SDS011;4507;40.232;29.132;2023-06-04T11:51:08;11.53;;;10.17;;
8944;SDS011;4507;40.232;29.132;2023-06-04T11:53:37;11.90;;;10.53;;
8944;SDS011;4507;40.232;29.132;2023-06-04T11:56:06;12.47;;;11.17;;
8944;SDS011;4507;40.232;29.132;2023-06-04T11:58:35;11.83;;;10.10;;
8944;SDS011;4507;40.232;29.132;2023-06-04T12:01:05;13.50;;;10.57;;
8944;SDS011;4507;40.232;29.132;2023-06-04T12:03:35;13.20;;;11.10;;
8944;SDS011;4507;40.232;29.132;2023-06-04T12:06:13;12.13;;;10.83;;
8944;SDS011;4507;40.232;29.132;2023-06-04T12:08:47;13.70;;;12.17;;
8944;SDS011;4507;40.232;29.132;2023-06-04T12:11:24;16.77;;;14.43;;
8944;SDS011;4507;40.232;29.132;2023-06-04T12:13:58;17.67;;;15.83;;
8944;SDS011;4507;40.232;29.132;2023-06-04T12:16:28;18.93;;;16.63;;
8944;SDS011;4507;40.232;29.132;2023-06-04T12:19:04;18.87;;;17.03;;
8944;SDS011;4507;40.232;29.132;2023-06-04T12:21:36;20.80;;;17.57;;
8944;SDS011;4507;40.232;29.132;2023-06-04T12:24:06;22.10;;;18.73;;
8944;SDS011;4507;40.232;29.132;2023-06-04T12:26:37;22.97;;;19.70;;
8944;SDS011;4507;40.232;29.132;2023-06-04T12:29:08;20.80;;;18.40;;
8944;SDS011;4507;40.232;29.132;2023-06-04T12:31:38;21.80;;;19.47;;
8944;SDS011;4507;40.232;29.132;2023-06-04T12:34:08;18.53;;;16.63;;
8944;SDS011;4507;40.232;29.132;2023-06-04T12:36:40;18.13;;;16.43;;
8944;SDS011;4507;40.232;29.132;2023-06-04T12:39:09;17.17;;;15.47;;
8944;SDS011;4507;40.232;29.132;2023-06-04T12:41:38;17.33;;;15.73;;
8944;SDS011;4507;40.232;29.132;2023-06-04T12:44:13;16.80;;;15.23;;
8944;SDS011;4507;40.232;29.132;2023-06-04T12:46:42;16.53;;;14.87;;
8944;SDS011;4507;40.232;29.132;2023-06-04T12:49:11;17.10;;;15.43;;
8944;SDS011;4507;40.232;29.132;2023-06-04T12:51:42;16.67;;;15.07;;
8944;SDS011;4507;40.232;29.132;2023-06-04T12:54:11;16.93;;;15.23;;
8944;SDS011;4507;40.232;29.132;2023-06-04T12:56:40;17.77;;;15.90;;
8944;SDS011;4507;40.232;29.132;2023-06-04T12:59:09;18.83;;;16.50;;
8944;SDS011;4507;40.232;29.132;2023-06-04T13:01:38;20.00;;;17.87;;
8944;SDS011;4507;40.232;29.132;2023-06-04T13:04:07;21.20;;;19.23;;
8944;SDS011;4507;40.232;29.132;2023-06-04T13:06:36;22.07;;;19.77;;
8944;SDS011;4507;40.232;29.132;2023-06-04T13:09:07;20.67;;;18.77;;
8944;SDS011;4507;40.232;29.132;2023-06-04T13:11:37;20.40;;;17.90;;
8944;SDS011;4507;40.232;29.132;2023-06-04T13:14:07;17.43;;;15.73;;
8944;SDS011;4507;40.232;29.132;2023-06-04T13:16:37;18.90;;;16.30;;
8944;SDS011;4507;40.232;29.132;2023-06-04T13:19:06;16.70;;;15.17;;
8944;SDS011;4507;40.232;29.132;2023-06-04T13:21:36;15.10;;;13.77;;
8944;SDS011;4507;40.232;29.132;2023-06-04T13:24:09;14.90;;;13.60;;
8944;SDS011;4507;40.232;29.132;2023-06-04T13:26:57;14.97;;;13.57;;
8944;SDS011;4507;40.232;29.132;2023-06-04T13:29:26;14.47;;;13.20;;
8944;SDS011;4507;40.232;29.132;2023-06-04T13:31:56;16.17;;;13.87;;
8944;SDS011;4507;40.232;29.132;2023-06-04T13:34:25;12.47;;;11.27;;
8944;SDS011;4507;40.232;29.132;2023-06-04T13:36:54;13.67;;;12.27;;
8944;SDS011;4507;40.232;29.132;2023-06-04T13:39:25;12.90;;;11.80;;
8944;SDS011;4507;40.232;29.132;2023-06-04T13:41:54;14.10;;;12.70;;
8944;SDS011;4507;40.232;29.132;2023-06-04T13:44:22;14.17;;;12.87;;
8944;SDS011;4507;40.232;29.132;2023-06-04T13:46:57;14.10;;;12.67;;
8944;SDS011;4507;40.232;29.132;2023-06-04T13:49:26;13.57;;;12.17;;
8944;SDS011;4507;40.232;29.132;2023-06-04T13:51:55;14.23;;;12.83;;
8944;SDS011;4507;40.232;29.132;2023-06-04T13:54:26;14.90;;;11.43;;
8944;SDS011;4507;40.232;29.132;2023-06-04T13:56:54;12.60;;;11.30;;
8944;SDS011;4507;40.232;29.132;2023-06-04T13:59:23;14.43;;;11.77;;
8944;SDS011;4507;40.232;29.132;2023-06-04T14:01:52;12.37;;;10.60;;
8944;SDS011;4507;40.232;29.132;2023-06-04T14:04:21;9.83;;;9.03;;
8944;SDS011;4507;40.232;29.132;2023-06-04T14:06:50;10.90;;;9.90;;
8944;SDS011;4507;40.232;29.132;2023-06-04T14:09:19;11.00;;;10.00;;
8944;SDS011;4507;40.232;29.132;2023-06-04T14:11:50;11.53;;;10.17;;
8944;SDS011;4507;40.232;29.132;2023-06-04T14:14:19;11.53;;;9.70;;
8944;SDS011;4507;40.232;29.132;2023-06-04T14:16:49;10.27;;;9.27;;
8944;SDS011;4507;40.232;29.132;2023-06-04T14:19:17;10.70;;;9.60;;
8944;SDS011;4507;40.232;29.132;2023-06-04T14:21:49;10.40;;;9.50;;
8944;SDS011;4507;40.232;29.132;2023-06-04T14:24:27;11.50;;;10.50;;
8944;SDS011;4507;40.232;29.132;2023-06-04T14:26:58;11.63;;;10.50;;
8944;SDS011;4507;40.232;29.132;2023-06-04T14:29:27;11.97;;;10.50;;
8944;SDS011;4507;40.232;29.132;2023-06-04T14:31:56;11.67;;;10.20;;
8944;SDS011;4507;40.232;29.132;2023-06-04T14:34:25;12.10;;;10.80;;
8944;SDS011;4507;40.232;29.132;2023-06-04T14:36:54;13.50;;;12.23;;
8944;SDS011;4507;40.232;29.132;2023-06-04T14:39:26;12.50;;;11.40;;
8944;SDS011;4507;40.232;29.132;2023-06-04T14:41:56;12.97;;;11.83;;
8944;SDS011;4507;40.232;29.132;2023-06-04T14:44:26;13.03;;;11.73;;
8944;SDS011;4507;40.232;29.132;2023-06-04T14:46:55;13.00;;;11.73;;
8944;SDS011;4507;40.232;29.132;2023-06-04T14:49:24;12.90;;;11.63;;
8944;SDS011;4507;40.232;29.132;2023-06-04T14:51:53;12.43;;;11.33;;
8944;SDS011;4507;40.232;29.132;2023-06-04T14:54:22;13.47;;;11.90;;
8944;SDS011;4507;40.232;29.132;2023-06-04T14:56:51;13.47;;;12.17;;
8944;SDS011;4507;40.232;29.132;2023-06-04T14:59:19;14.27;;;12.87;;